createdAt,value
2023-03-06T00:00:57.326Z,8.73
2023-03-06T00:03:27.783Z,7.78
2023-03-06T00:05:57.332Z,9.00
2023-03-06T00:08:24.977Z,8.57
2023-03-06T00:10:52.319Z,8.77
2023-03-06T00:16:44.341Z,9.85
2023-03-06T00:19:11.677Z,9.57
2023-03-06T00:21:41.127Z,9.52
2023-03-06T00:24:08.433Z,9.50
2023-03-06T00:26:36.729Z,10.10
2023-03-06T00:29:04.149Z,10.73
2023-03-06T00:31:31.484Z,10.43
2023-03-06T00:33:58.395Z,10.40
2023-03-06T00:36:25.681Z,10.70
2023-03-06T00:38:52.564Z,10.65
2023-03-06T00:41:20.436Z,10.40
2023-03-06T00:43:47.672Z,10.00
2023-03-06T00:46:14.512Z,11.35
2023-03-06T00:48:41.322Z,11.13
2023-03-06T00:51:08.652Z,12.00
2023-03-06T00:53:35.949Z,10.70
2023-03-06T00:56:02.801Z,11.90
2023-03-06T00:58:29.633Z,11.82
2023-03-06T01:00:56.863Z,11.25
2023-03-06T01:03:23.664Z,11.75
2023-03-06T01:05:52.692Z,12.00
2023-03-06T01:08:19.544Z,12.10
2023-03-06T01:10:46.833Z,13.00
2023-03-06T01:13:13.650Z,11.45
2023-03-06T01:15:40.665Z,11.73
2023-03-06T01:18:07.462Z,12.18
2023-03-06T01:20:36.769Z,12.48
2023-03-06T01:23:04.028Z,12.90
2023-03-06T01:25:30.854Z,12.45
2023-03-06T01:27:57.669Z,13.73
2023-03-06T01:30:24.896Z,12.70
2023-03-06T01:32:52.128Z,13.27
2023-03-06T01:35:19.007Z,12.90
2023-03-06T01:37:45.901Z,13.45
2023-03-06T01:40:13.418Z,12.85
2023-03-06T01:42:40.331Z,12.73
2023-03-06T01:45:13.236Z,13.38
2023-03-06T01:47:40.343Z,12.80
2023-03-06T01:50:10.373Z,13.15
2023-03-06T01:52:47.633Z,13.57
2023-03-06T01:55:18.534Z,14.38
2023-03-06T01:57:48.747Z,14.88
2023-03-06T02:00:21.077Z,13.77
2023-03-06T02:02:53.223Z,14.27
2023-03-06T02:05:20.150Z,14.45
2023-03-06T02:07:47.904Z,14.33
2023-03-06T02:10:17.879Z,13.20
2023-03-06T02:12:45.777Z,14.32
2023-03-06T02:15:15.348Z,14.23
2023-03-06T02:17:44.276Z,13.88
2023-03-06T02:20:32.097Z,14.40
2023-03-06T02:23:04.766Z,13.75
2023-03-06T02:25:34.793Z,13.23
2023-03-06T02:28:02.086Z,14.55
2023-03-06T02:30:30.582Z,14.27
2023-03-06T02:32:58.793Z,13.98
2023-03-06T02:35:30.285Z,15.05
2023-03-06T02:38:02.059Z,15.77
2023-03-06T02:40:29.534Z,14.90
2023-03-06T02:42:58.523Z,14.18
2023-03-06T02:45:35.574Z,15.25
2023-03-06T02:48:03.292Z,15.00
2023-03-06T02:50:30.939Z,15.25
2023-03-06T02:52:58.654Z,16.15
2023-03-06T02:55:25.970Z,15.20
2023-03-06T02:57:55.331Z,14.90
2023-03-06T03:00:23.670Z,15.68
2023-03-06T03:02:51.110Z,15.10
2023-03-06T03:05:18.622Z,14.98
2023-03-06T03:07:50.136Z,15.77
2023-03-06T03:10:17.285Z,15.97
2023-03-06T03:12:45.776Z,15.32
2023-03-06T03:15:13.987Z,15.70
2023-03-06T03:17:41.673Z,17.25
2023-03-06T03:20:12.324Z,16.27
2023-03-06T03:22:39.869Z,16.63
2023-03-06T03:25:07.574Z,16.98
2023-03-06T03:27:34.901Z,16.20
2023-03-06T03:30:02.237Z,16.52
2023-03-06T03:32:30.197Z,16.27
2023-03-06T03:34:57.243Z,17.97
2023-03-06T03:37:26.003Z,17.10
2023-03-06T03:39:54.621Z,18.10
2023-03-06T03:42:36.169Z,18.00
2023-03-06T03:45:05.161Z,18.15
2023-03-06T03:47:32.168Z,18.02
2023-03-06T03:50:00.211Z,18.45
2023-03-06T03:52:27.311Z,18.65
2023-03-06T03:54:54.562Z,19.17
2023-03-06T03:57:21.788Z,19.02
2023-03-06T03:59:51.518Z,18.63
2023-03-06T04:02:36.909Z,19.63
2023-03-06T04:05:14.634Z,20.45
2023-03-06T04:07:43.060Z,19.55
2023-03-06T04:10:12.509Z,18.75
2023-03-06T04:12:40.141Z,19.75
2023-03-06T04:15:08.013Z,19.02
2023-03-06T04:17:35.722Z,19.27
2023-03-06T04:20:06.058Z,20.20
2023-03-06T04:22:33.910Z,21.60
2023-03-06T04:25:00.948Z,20.60
2023-03-06T04:27:28.239Z,20.17
2023-03-06T04:29:56.413Z,21.35
2023-03-06T04:32:24.235Z,20.17
2023-03-06T04:34:51.819Z,20.75
2023-03-06T04:37:22.007Z,21.20
2023-03-06T04:39:49.500Z,21.63
2023-03-06T04:42:16.782Z,22.38
2023-03-06T04:44:43.961Z,21.77
2023-03-06T04:47:11.759Z,21.25
2023-03-06T04:49:39.087Z,21.42
2023-03-06T04:52:06.454Z,21.95
2023-03-06T04:54:33.714Z,22.30
2023-03-06T04:57:01.002Z,23.00
2023-03-06T04:59:28.231Z,21.58
2023-03-06T05:01:55.636Z,22.45
2023-03-06T05:04:23.031Z,23.52
2023-03-06T05:06:50.320Z,22.33
2023-03-06T05:09:17.598Z,23.17
2023-03-06T05:11:44.919Z,24.27
2023-03-06T05:14:12.180Z,22.40
2023-03-06T05:16:39.500Z,23.83
2023-03-06T05:19:06.425Z,22.63
2023-03-06T05:21:33.703Z,23.58
2023-03-06T05:24:01.056Z,23.40
2023-03-06T05:26:28.309Z,25.15
2023-03-06T05:28:55.701Z,24.05
2023-03-06T05:31:23.066Z,24.20
2023-03-06T05:33:49.980Z,25.42
2023-03-06T05:36:16.827Z,25.67
2023-03-06T05:38:44.073Z,25.75
2023-03-06T05:41:13.097Z,25.45
2023-03-06T05:43:40.510Z,24.33
2023-03-06T05:46:08.096Z,25.23
2023-03-06T05:48:36.596Z,25.30
2023-03-06T05:51:04.455Z,24.77
2023-03-06T05:53:32.057Z,26.27
2023-03-06T05:56:03.996Z,26.23
2023-03-06T05:58:33.053Z,25.77
2023-03-06T06:01:13.122Z,26.23
2023-03-06T06:03:40.541Z,24.47
2023-03-06T06:06:09.240Z,27.13
2023-03-06T06:08:36.620Z,25.15
2023-03-06T06:11:08.352Z,26.05
2023-03-06T06:13:35.647Z,25.80
2023-03-06T06:16:11.602Z,26.10
2023-03-06T06:18:41.126Z,25.40
2023-03-06T06:21:14.421Z,25.92
2023-03-06T06:23:42.187Z,25.05
2023-03-06T06:26:09.803Z,26.85
2023-03-06T06:28:37.643Z,27.35
2023-03-06T06:31:12.465Z,27.63
2023-03-06T06:33:40.299Z,27.77
2023-03-06T06:36:15.738Z,26.92
2023-03-06T06:38:43.077Z,27.70
2023-03-06T06:43:59.413Z,27.25
2023-03-06T06:47:17.885Z,26.92
2023-03-06T06:49:15.211Z,27.10
2023-03-06T06:51:42.583Z,27.38
2023-03-06T06:54:11.145Z,27.75
2023-03-06T06:56:39.025Z,27.10
2023-03-06T06:59:16.128Z,26.42
2023-03-06T07:01:44.487Z,27.93
2023-03-06T07:04:15.000Z,28.08
2023-03-06T07:06:43.006Z,28.45
2023-03-06T07:09:10.390Z,27.80
2023-03-06T07:11:38.961Z,28.13
2023-03-06T07:14:06.399Z,28.33
2023-03-06T07:16:33.736Z,28.63
2023-03-06T07:19:01.038Z,29.13
2023-03-06T07:21:28.374Z,27.38
2023-03-06T07:23:57.449Z,28.73
2023-03-06T07:26:25.568Z,28.48
2023-03-06T07:29:21.330Z,28.33
2023-03-06T07:31:48.698Z,28.27
2023-03-06T07:34:16.422Z,30.83
2023-03-06T07:36:43.702Z,29.40
2023-03-06T07:39:11.150Z,29.88
2023-03-06T07:41:38.446Z,30.13
2023-03-06T07:44:05.739Z,30.73
2023-03-06T07:46:33.055Z,30.27
2023-03-06T07:49:00.081Z,29.52
2023-03-06T07:51:27.407Z,31.23
2023-03-06T07:53:54.801Z,29.87
2023-03-06T07:56:22.293Z,28.80
2023-03-06T07:58:49.346Z,29.38
2023-03-06T08:01:20.031Z,24.00
2023-03-06T08:03:49.225Z,22.42
2023-03-06T08:06:19.536Z,23.05
2023-03-06T08:08:49.037Z,23.17
2023-03-06T08:11:18.803Z,22.40
2023-03-06T08:13:46.866Z,24.02
2023-03-06T08:16:14.215Z,23.85
2023-03-06T08:18:42.835Z,20.90
2023-03-06T08:21:16.377Z,23.63
2023-03-06T08:23:43.873Z,21.35
2023-03-06T08:26:21.369Z,23.15
2023-03-06T08:28:48.802Z,22.42
2023-03-06T08:33:54.883Z,21.75
2023-03-06T08:36:22.416Z,22.42
2023-03-06T08:38:49.803Z,24.98
2023-03-06T08:41:17.255Z,27.27
2023-03-06T08:43:44.747Z,23.60
2023-03-06T08:46:12.119Z,23.33
2023-03-06T08:48:39.619Z,23.23
2023-03-06T08:51:09.518Z,23.02
2023-03-06T08:53:43.110Z,23.77
2023-03-06T08:56:22.676Z,23.45
2023-03-06T08:58:50.412Z,22.85
2023-03-06T09:01:20.498Z,21.45
2023-03-06T09:03:48.069Z,22.23
2023-03-06T09:06:15.760Z,22.13
2023-03-06T09:08:44.595Z,24.02
2023-03-06T09:11:13.384Z,26.17
2023-03-06T09:13:40.711Z,21.85
2023-03-06T09:16:08.978Z,23.50
2023-03-06T09:18:36.650Z,21.67
2023-03-06T09:21:04.944Z,20.38
2023-03-06T09:23:32.394Z,21.83
2023-03-06T09:26:00.861Z,19.95
2023-03-06T09:28:28.603Z,21.27
2023-03-06T09:30:56.313Z,19.15
2023-03-06T09:33:23.774Z,17.95
2023-03-06T09:35:54.193Z,20.05
2023-03-06T09:38:24.214Z,17.63
2023-03-06T09:41:30.391Z,17.77
2023-03-06T09:44:31.559Z,18.02
2023-03-06T09:47:20.279Z,16.90
2023-03-06T09:50:14.370Z,17.15
2023-03-06T09:53:11.916Z,17.73
2023-03-06T09:55:40.797Z,18.88
2023-03-06T09:58:23.290Z,17.55
2023-03-06T10:01:16.337Z,15.55
2023-03-06T10:03:43.677Z,17.33
2023-03-06T10:06:21.130Z,17.58
2023-03-06T10:09:02.531Z,14.40
2023-03-06T10:11:39.417Z,14.80
2023-03-06T10:14:35.172Z,13.93
2023-03-06T10:17:03.371Z,15.00
2023-03-06T10:19:41.120Z,15.38
2023-03-06T10:22:36.820Z,15.32
2023-03-06T10:25:28.118Z,14.43
2023-03-06T10:28:08.835Z,14.35
2023-03-06T10:31:11.538Z,14.13
2023-03-06T10:34:07.962Z,14.80
2023-03-06T10:36:35.542Z,15.27
2023-03-06T10:39:14.166Z,15.35
2023-03-06T10:41:41.579Z,13.52
2023-03-06T10:44:09.638Z,15.23
2023-03-06T10:46:39.490Z,14.52
2023-03-06T10:49:21.648Z,15.70
2023-03-06T10:52:04.769Z,14.30
2023-03-06T10:54:34.629Z,14.05
2023-03-06T10:57:31.805Z,14.50
2023-03-06T11:00:08.638Z,15.50
2023-03-06T11:02:38.688Z,16.50
2023-03-06T11:05:06.856Z,15.27
2023-03-06T11:07:35.500Z,14.35
2023-03-06T11:10:19.343Z,13.43
2023-03-06T11:13:17.171Z,14.93
2023-03-06T11:16:05.904Z,15.20
2023-03-06T11:18:37.650Z,14.32
2023-03-06T11:21:23.330Z,14.55
2023-03-06T11:23:52.131Z,12.77
2023-03-06T11:26:32.583Z,11.57
2023-03-06T11:32:26.808Z,12.32
2023-03-06T11:35:04.391Z,11.30
2023-03-06T11:37:54.045Z,11.00
2023-03-06T11:40:21.399Z,9.70
2023-03-06T11:42:58.355Z,11.02
2023-03-06T11:45:47.295Z,10.52
2023-03-06T11:48:14.698Z,11.40
2023-03-06T11:50:52.714Z,9.73
2023-03-06T11:53:23.479Z,9.18
2023-03-06T11:55:50.792Z,9.88
2023-03-06T11:58:40.362Z,9.60
2023-03-06T12:01:17.567Z,7.72
2023-03-06T12:03:47.730Z,7.05
2023-03-06T12:06:28.740Z,6.63
2023-03-06T12:09:19.448Z,6.30
2023-03-06T12:12:24.016Z,5.95
2023-03-06T12:14:51.431Z,6.28
2023-03-06T12:17:52.025Z,5.25
2023-03-06T12:20:40.146Z,5.57
2023-03-06T12:23:28.553Z,5.57
2023-03-06T12:26:09.883Z,5.68
2023-03-06T12:28:58.503Z,5.80
2023-03-06T12:31:56.368Z,5.13
2023-03-06T12:34:44.804Z,5.18
2023-03-06T12:37:12.176Z,5.32
2023-03-06T12:39:42.184Z,4.80
2023-03-06T12:42:29.582Z,4.20
2023-03-06T12:45:27.988Z,4.30
2023-03-06T12:47:57.030Z,3.80
2023-03-06T12:50:27.073Z,4.18
2023-03-06T12:52:56.839Z,4.30
2023-03-06T12:55:25.968Z,4.13
2023-03-06T12:57:54.073Z,4.57
2023-03-06T13:00:34.308Z,4.57
2023-03-06T13:03:44.981Z,4.60
2023-03-06T13:06:44.988Z,5.85
2023-03-06T13:09:36.053Z,5.78
2023-03-06T13:12:25.557Z,5.82
2023-03-06T13:15:00.857Z,6.63
2023-03-06T13:17:35.375Z,6.50
2023-03-06T13:20:14.770Z,7.35
2023-03-06T13:22:47.526Z,6.97
2023-03-06T13:25:17.547Z,6.68
2023-03-06T13:27:49.422Z,8.32
2023-03-06T13:30:23.016Z,8.73
2023-03-06T13:32:52.901Z,7.88
2023-03-06T13:35:42.846Z,11.00
2023-03-06T13:38:33.382Z,11.32
2023-03-06T13:41:35.464Z,9.40
2023-03-06T13:44:26.379Z,7.72
2023-03-06T13:47:59.092Z,7.07
2023-03-06T13:53:13.027Z,8.25
2023-03-06T13:56:05.073Z,8.63
2023-03-06T13:58:56.612Z,8.27
2023-03-06T14:01:46.358Z,6.97
2023-03-06T14:04:54.289Z,6.03
2023-03-06T14:07:29.724Z,5.35
2023-03-06T14:09:57.128Z,5.75
2023-03-06T14:12:36.383Z,6.03
2023-03-06T14:15:21.591Z,5.90
2023-03-06T14:18:00.432Z,7.07
2023-03-06T14:20:44.921Z,5.95
2023-03-06T14:23:24.142Z,5.95
2023-03-06T14:26:17.427Z,6.38
2023-03-06T14:28:55.299Z,5.22
2023-03-06T14:31:40.819Z,6.75
2023-03-06T14:34:15.547Z,5.45
2023-03-06T14:36:48.983Z,7.60
2023-03-06T14:39:41.785Z,7.40
2023-03-06T14:42:22.141Z,7.18
2023-03-06T14:47:34.563Z,7.70
2023-03-06T14:50:34.638Z,8.32
2023-03-06T14:53:14.874Z,8.82
2023-03-06T14:58:19.951Z,7.80
2023-03-06T15:00:50.970Z,8.35
2023-03-06T15:03:41.609Z,7.55
2023-03-06T15:06:12.169Z,8.25
2023-03-06T15:08:42.343Z,8.02
2023-03-06T15:11:09.609Z,8.80
2023-03-06T15:13:39.109Z,8.90
2023-03-06T15:16:15.181Z,9.77
2023-03-06T15:19:01.988Z,8.23
2023-03-06T15:21:36.230Z,8.43
2023-03-06T15:24:36.981Z,7.80
2023-03-06T15:27:06.551Z,7.85
2023-03-06T15:29:37.713Z,7.43
2023-03-06T15:32:39.182Z,7.72
2023-03-06T15:35:24.704Z,8.45
2023-03-06T15:37:52.214Z,6.80
2023-03-06T15:40:24.368Z,5.90
2023-03-06T15:42:52.038Z,6.53
2023-03-06T15:45:27.690Z,6.55
2023-03-06T15:47:55.733Z,7.45
2023-03-06T15:50:26.105Z,5.50
2023-03-06T15:52:55.757Z,4.97
2023-03-06T15:55:28.440Z,4.38
2023-03-06T15:58:02.172Z,4.85
2023-03-06T16:00:34.161Z,4.80
2023-03-06T16:03:02.203Z,4.35
2023-03-06T16:05:29.918Z,4.72
2023-03-06T16:07:57.277Z,4.78
2023-03-06T16:10:27.475Z,4.10
2023-03-06T16:13:06.278Z,4.20
2023-03-06T16:15:39.999Z,4.07
2023-03-06T16:18:07.540Z,4.45
2023-03-06T16:20:34.966Z,4.65
2023-03-06T16:23:05.607Z,4.57
2023-03-06T16:25:32.971Z,4.65
2023-03-06T16:28:00.931Z,4.60
2023-03-06T16:30:33.131Z,6.22
2023-03-06T16:33:00.798Z,4.80
2023-03-06T16:35:28.297Z,4.45
2023-03-06T16:37:55.620Z,4.57
2023-03-06T16:40:22.964Z,4.40
2023-03-06T16:42:51.668Z,4.45
2023-03-06T16:45:20.547Z,4.40
2023-03-06T16:47:48.104Z,4.93
2023-03-06T16:50:36.392Z,4.72
2023-03-06T16:53:04.230Z,4.82
2023-03-06T16:55:31.612Z,5.70
2023-03-06T16:57:58.953Z,6.20
2023-03-06T17:00:31.229Z,4.57
2023-03-06T17:02:58.616Z,5.32
2023-03-06T17:05:26.106Z,4.50
2023-03-06T17:07:53.637Z,5.88
2023-03-06T17:10:22.780Z,6.00
2023-03-06T17:12:50.197Z,6.32
2023-03-06T17:15:17.545Z,5.22
2023-03-06T17:17:44.846Z,5.60
2023-03-06T17:20:12.720Z,4.90
2023-03-06T17:22:41.551Z,6.13
2023-03-06T17:25:09.228Z,5.00
2023-03-06T17:27:37.078Z,5.82
2023-03-06T17:30:05.404Z,5.78
2023-03-06T17:32:32.923Z,5.50
2023-03-06T17:35:00.404Z,6.43
2023-03-06T17:37:27.934Z,7.03
2023-03-06T17:39:55.282Z,6.78
2023-03-06T17:42:22.542Z,6.88
2023-03-06T17:44:50.961Z,7.25
2023-03-06T17:47:18.305Z,6.63
2023-03-06T17:49:45.665Z,7.13
2023-03-06T17:52:12.921Z,6.55
2023-03-06T17:54:40.512Z,6.80
2023-03-06T17:57:07.789Z,7.40
2023-03-06T17:59:35.073Z,7.63
2023-03-06T18:02:02.819Z,7.75
2023-03-06T18:04:30.329Z,7.93
2023-03-06T18:06:58.411Z,9.15
2023-03-06T18:09:25.829Z,8.63
2023-03-06T18:11:53.179Z,8.93
2023-03-06T18:14:20.436Z,10.35
2023-03-06T18:16:47.986Z,9.80
2023-03-06T18:19:16.457Z,10.73
2023-03-06T18:21:43.754Z,12.02
2023-03-06T18:24:12.371Z,12.00
2023-03-06T18:26:42.268Z,12.60
2023-03-06T18:29:09.553Z,14.40
2023-03-06T18:31:39.003Z,13.80
2023-03-06T18:34:13.575Z,16.30
2023-03-06T18:36:52.682Z,15.05
2023-03-06T18:39:21.448Z,15.55
2023-03-06T18:41:48.824Z,15.27
2023-03-06T18:44:17.484Z,14.73
2023-03-06T18:46:44.776Z,14.70
2023-03-06T18:49:12.658Z,15.10
2023-03-06T18:51:40.231Z,14.93
2023-03-06T18:54:11.385Z,17.45
2023-03-06T18:56:40.381Z,19.42
2023-03-06T18:59:08.006Z,20.42
2023-03-06T19:01:36.794Z,17.92
2023-03-06T19:04:05.202Z,17.38
2023-03-06T19:06:32.876Z,15.95
2023-03-06T19:09:01.827Z,15.40
2023-03-06T19:11:29.590Z,16.05
2023-03-06T19:13:57.108Z,15.93
2023-03-06T19:16:27.063Z,15.63
2023-03-06T19:18:57.644Z,16.83
2023-03-06T19:21:26.840Z,16.52
2023-03-06T19:23:54.760Z,15.43
2023-03-06T19:26:22.660Z,16.08
2023-03-06T19:28:51.699Z,15.25
2023-03-06T19:31:40.139Z,15.35
2023-03-06T19:34:07.699Z,16.75
2023-03-06T19:36:35.643Z,18.10
2023-03-06T19:39:12.864Z,20.80
2023-03-06T19:41:47.764Z,20.40
2023-03-06T19:44:16.338Z,19.95
2023-03-06T19:46:46.002Z,20.65
2023-03-06T19:49:16.901Z,22.20
2023-03-06T19:51:44.879Z,21.20
2023-03-06T19:54:12.879Z,21.13
2023-03-06T19:56:40.815Z,22.60
2023-03-06T19:59:11.590Z,18.83
2023-03-06T20:01:39.687Z,17.10
2023-03-06T20:04:07.786Z,17.60
2023-03-06T20:06:37.698Z,16.27
2023-03-06T20:09:20.405Z,16.70
2023-03-06T20:12:17.716Z,17.52
2023-03-06T20:27:34.558Z,16.80
2023-03-06T20:33:34.992Z,16.17
2023-03-06T20:36:40.855Z,14.60
2023-03-06T20:39:18.343Z,15.02
2023-03-06T20:41:48.615Z,16.50
2023-03-06T20:47:02.448Z,13.80
2023-03-06T20:49:32.296Z,15.02
2023-03-06T20:52:00.074Z,15.35
2023-03-06T20:54:29.870Z,14.55
2023-03-06T20:58:00.142Z,15.10
2023-03-06T21:02:55.066Z,14.38
2023-03-06T21:10:08.745Z,14.48
2023-03-06T21:16:42.423Z,15.60
2023-03-06T21:19:44.682Z,15.40
2023-03-06T21:22:11.784Z,14.32
2023-03-06T21:24:38.722Z,14.57
2023-03-06T21:27:05.689Z,13.68
2023-03-06T21:29:32.568Z,15.70
2023-03-06T21:31:59.559Z,14.68
2023-03-06T21:34:26.488Z,14.75
2023-03-06T21:36:53.427Z,15.05
2023-03-06T21:39:21.351Z,13.85
2023-03-06T21:41:48.261Z,16.08
2023-03-06T21:44:15.270Z,17.13
2023-03-06T21:46:42.225Z,18.05
2023-03-06T21:49:09.583Z,16.38
2023-03-06T21:51:36.860Z,16.55
2023-03-06T21:54:05.990Z,14.98
2023-03-06T21:56:33.713Z,15.23
2023-03-06T21:59:01.104Z,15.27
2023-03-06T22:01:29.002Z,14.88
2023-03-06T22:03:57.409Z,15.07
2023-03-06T22:06:26.680Z,14.98
2023-03-06T22:08:55.528Z,14.37
2023-03-06T22:11:24.249Z,14.27
2023-03-06T22:13:53.396Z,13.35
2023-03-06T22:16:20.941Z,14.48
2023-03-06T22:18:49.920Z,15.13
2023-03-06T22:21:18.875Z,14.20
2023-03-06T22:23:53.299Z,14.73
2023-03-06T22:26:20.632Z,15.00
2023-03-06T22:28:48.076Z,15.70
2023-03-06T22:31:21.462Z,16.05
2023-03-06T22:33:52.181Z,15.80
2023-03-06T22:36:20.361Z,16.05
2023-03-06T22:38:48.509Z,18.05
2023-03-06T22:41:17.555Z,16.48
2023-03-06T22:43:44.617Z,17.00
2023-03-06T22:46:15.141Z,16.52
2023-03-06T22:48:42.849Z,17.63
2023-03-06T22:51:15.505Z,17.23
2023-03-06T22:53:43.085Z,17.90
2023-03-06T22:56:12.349Z,18.25
2023-03-06T22:58:40.414Z,17.25
2023-03-06T23:01:19.307Z,17.88
2023-03-06T23:03:51.892Z,18.45
2023-03-06T23:06:20.227Z,18.08
2023-03-06T23:08:59.979Z,18.10
2023-03-06T23:11:30.539Z,19.13
2023-03-06T23:14:17.470Z,18.00
2023-03-06T23:17:03.151Z,19.65
2023-03-06T23:19:49.735Z,18.98
2023-03-06T23:22:34.979Z,18.83
2023-03-06T23:25:21.032Z,17.77
2023-03-06T23:27:47.963Z,18.48
2023-03-06T23:30:15.066Z,19.30
2023-03-06T23:32:43.745Z,19.83
2023-03-06T23:35:12.190Z,19.50
2023-03-06T23:37:39.500Z,19.45
2023-03-06T23:40:09.012Z,18.92
2023-03-06T23:42:36.225Z,18.08
2023-03-06T23:45:03.355Z,19.10
2023-03-06T23:47:33.907Z,18.40
2023-03-06T23:50:01.229Z,17.38
2023-03-06T23:52:28.110Z,18.08
2023-03-06T23:54:54.996Z,19.00
2023-03-06T23:57:21.913Z,18.85
2023-03-06T23:59:48.859Z,18.08
